Time;durP1;ratioP1;P1;durP2;ratioP2;P2;SDS_P1;SDS_P2;PMS_P1;PMS_P2;Temp;Humidity;BMP_temperature;BMP_pressure;BME280_temperature;BME280_humidity;BME280_pressure;Samples;Min_cycle;Max_cycle;Signal;HPM_P1;HPM_P2
2021/12/25 00:02:08;;;;;;;20.02;9.07;;;;;;;-9.42;82.94;97996.94;5071580;28;20055;-79
2021/12/25 00:04:33;;;;;;;16.23;8.93;;;;;;;-9.44;83.46;97989.19;5071525;28;20147;-78
2021/12/25 00:06:59;;;;;;;20.42;9.55;;;;;;;-9.43;83.35;97990.81;5045215;28;20081;-80
2021/12/25 00:09:25;;;;;;;15.32;8.30;;;;;;;-9.53;83.46;98001.13;5070634;28;20036;-80
2021/12/25 00:11:51;;;;;;;20.60;9.27;;;;;;;-9.66;82.60;98014.50;5071509;28;20039;-80
2021/12/25 00:14:17;;;;;;;24.38;9.23;;;;;;;-9.77;82.18;98007.22;5053678;28;20043;-81
2021/12/25 00:16:43;;;;;;;15.20;8.90;;;;;;;-9.79;82.68;98002.16;5069581;28;20052;-76
2021/12/25 00:19:09;;;;;;;15.75;8.85;;;;;;;-9.76;83.48;98012.31;5053651;28;20048;-77
2021/12/25 00:21:34;;;;;;;17.35;8.60;;;;;;;-9.73;83.83;98009.22;5069620;28;20047;-77
2021/12/25 00:24:00;;;;;;;16.27;8.57;;;;;;;-9.71;83.31;98014.34;5071654;28;20036;-77
2021/12/25 00:26:49;;;;;;;12.60;6.95;;;;;;;-9.78;83.14;98013.56;5036761;28;20039;-77
2021/12/25 00:31:55;;;;;;;12.95;6.30;;;;;;;-9.87;82.99;98004.25;5070249;28;20044;-77
2021/12/25 00:34:23;;;;;;;12.15;6.10;;;;;;;-9.87;81.95;98009.56;5071101;28;20041;-77
2021/12/25 00:36:50;;;;;;;13.63;6.95;;;;;;;-9.88;82.57;98008.75;5051993;28;20032;-78
2021/12/25 00:39:16;;;;;;;11.85;6.70;;;;;;;-9.94;82.95;98009.59;5069168;28;20284;-78
2021/12/25 00:41:41;;;;;;;10.38;5.93;;;;;;;-10.08;82.44;98014.16;5052929;28;20093;-78
2021/12/25 00:44:07;;;;;;;12.07;6.28;;;;;;;-10.19;81.99;98020.16;5069626;28;20109;-77
2021/12/25 00:46:33;;;;;;;11.30;6.55;;;;;;;-10.35;81.90;98018.03;5071389;28;20036;-78
2021/12/25 00:48:59;;;;;;;10.30;5.50;;;;;;;-10.46;81.75;98016.84;5070805;28;20043;-78
2021/12/25 00:51:25;;;;;;;11.23;5.65;;;;;;;-10.58;81.42;98018.56;5036261;28;20036;-78
2021/12/25 00:53:51;;;;;;;11.00;6.78;;;;;;;-10.69;81.76;98017.38;5069726;28;20032;-78
2021/12/25 00:56:17;;;;;;;7.93;5.07;;;;;;;-10.74;81.68;98021.69;5070598;28;20032;-78
2021/12/25 00:58:42;;;;;;;12.60;5.65;;;;;;;-10.78;81.82;98028.41;5069145;28;20537;-77
2021/12/25 01:01:09;;;;;;;10.90;5.70;;;;;;;-10.83;80.92;98029.03;5059140;28;20067;-78
2021/12/25 01:03:35;;;;;;;12.57;6.60;;;;;;;-10.84;81.12;98026.59;5052414;28;20446;-78
2021/12/25 01:06:01;;;;;;;12.30;6.50;;;;;;;-10.85;81.20;98027.63;5052798;28;20115;-78
2021/12/25 01:08:27;;;;;;;11.15;6.18;;;;;;;-10.83;82.08;98034.31;5069734;28;20064;-78
2021/12/25 01:10:53;;;;;;;9.82;5.15;;;;;;;-10.77;82.40;98038.78;5052323;28;21442;-78
2021/12/25 01:13:27;;;;;;;9.13;5.30;;;;;;;-10.72;82.48;98031.03;5052515;28;20086;-77
2021/12/25 01:21:32;;;;;;;8.13;3.15;;;;;;;-10.76;82.10;98047.53;5081746;28;20434;-78
2021/12/25 01:29:44;;;;;;;4.53;2.58;;;;;;;-10.85;82.04;98056.75;5027557;28;20623;-77
2021/12/25 01:37:47;;;;;;;4.53;2.10;;;;;;;-10.95;82.96;98043.94;5069758;28;20040;-78
2021/12/25 01:49:24;;;;;;;3.90;1.98;;;;;;;-10.96;82.97;98050.25;5070619;28;20071;-77
2021/12/25 01:51:50;;;;;;;2.42;1.70;;;;;;;-10.99;82.41;98048.00;5070421;28;20032;-78
2021/12/25 01:54:16;;;;;;;2.78;1.60;;;;;;;-11.02;82.78;98064.31;5070123;28;20040;-78
2021/12/25 01:56:41;;;;;;;3.60;2.40;;;;;;;-11.01;83.25;98058.00;5085215;28;20048;-77
2021/12/25 01:59:07;;;;;;;3.40;2.22;;;;;;;-11.07;83.26;98058.84;5050819;28;20044;-78
2021/12/25 02:01:33;;;;;;;2.92;2.10;;;;;;;-11.07;83.41;98048.25;5069416;28;20040;-78
2021/12/25 02:03:58;;;;;;;2.42;1.75;;;;;;;-11.02;83.91;98057.19;5037580;28;20380;-76
2021/12/25 02:06:24;;;;;;;3.45;1.80;;;;;;;-11.02;83.38;98048.44;5068644;28;20127;-77
2021/12/25 02:08:50;;;;;;;2.88;1.90;;;;;;;-11.04;83.74;98058.41;5051861;28;20036;-77
2021/12/25 02:11:15;;;;;;;3.67;1.80;;;;;;;-11.09;84.23;98058.22;5085693;28;20044;-77
2021/12/25 02:13:42;;;;;;;4.72;2.38;;;;;;;-11.14;84.21;98073.91;5035911;28;20387;-77
2021/12/25 02:16:16;;;;;;;3.25;2.08;;;;;;;-11.20;84.34;98074.72;5051454;28;20098;-77
2021/12/25 02:21:36;;;;;;;3.28;2.10;;;;;;;-11.29;83.93;98085.50;5071956;28;20040;-78
2021/12/25 02:24:07;;;;;;;2.17;1.70;;;;;;;-11.32;83.61;98090.41;5020653;28;20039;-78
2021/12/25 02:26:33;;;;;;;4.47;2.28;;;;;;;-11.35;83.52;98096.94;5066137;28;20160;-77
2021/12/25 02:28:59;;;;;;;3.95;2.28;;;;;;;-11.39;84.14;98098.34;5071902;28;20032;-77
2021/12/25 02:31:25;;;;;;;4.47;2.38;;;;;;;-11.42;84.43;98095.31;5073167;28;20047;-78
2021/12/25 02:33:51;;;;;;;3.20;2.40;;;;;;;-11.46;84.61;98096.72;5055615;28;20037;-78
2021/12/25 02:36:17;;;;;;;3.45;2.58;;;;;;;-11.52;84.25;98103.63;5072280;28;20140;-78
2021/12/25 02:38:46;;;;;;;4.03;2.60;;;;;;;-11.55;84.45;98106.69;5071584;28;20071;-76
2021/12/25 02:41:13;;;;;;;3.90;2.50;;;;;;;-11.62;84.53;98103.25;5072078;28;20072;-78
2021/12/25 02:43:39;;;;;;;3.92;2.47;;;;;;;-11.69;84.92;98107.69;5058501;28;20295;-75
2021/12/25 02:46:06;;;;;;;5.07;2.60;;;;;;;-11.73;85.02;98107.28;5055277;28;20123;-75
2021/12/25 02:48:34;;;;;;;4.32;2.40;;;;;;;-11.83;84.88;98114.81;5073513;28;20044;-78
2021/12/25 02:51:01;;;;;;;4.68;2.25;;;;;;;-11.90;84.50;98124.56;5069990;28;20032;-76
2021/12/25 02:53:26;;;;;;;4.15;2.25;;;;;;;-11.94;84.17;98118.88;5068978;28;20094;-77
2021/12/25 02:55:53;;;;;;;4.55;2.38;;;;;;;-11.98;84.70;98120.25;5072105;28;20060;-77
2021/12/25 02:58:21;;;;;;;3.60;2.20;;;;;;;-11.98;84.38;98120.25;5052408;28;20041;-78
2021/12/25 03:00:56;;;;;;;4.00;1.98;;;;;;;-12.02;85.46;98121.66;5066818;28;20040;-76
2021/12/25 03:03:22;;;;;;;3.05;1.95;;;;;;;-12.12;84.45;98126.53;5057383;28;20083;-76
2021/12/25 03:05:48;;;;;;;5.88;2.20;;;;;;;-12.16;84.90;98130.56;5071466;28;20039;-76
2021/12/25 03:08:14;;;;;;;3.17;1.80;;;;;;;-12.25;84.74;98139.69;5072206;28;20040;-76
2021/12/25 03:10:53;;;;;;;3.30;1.80;;;;;;;-12.37;84.18;98144.72;5040287;28;20042;-78
2021/12/25 03:13:32;;;;;;;3.05;1.52;;;;;;;-12.43;84.39;98142.06;5073057;28;20129;-78
2021/12/25 03:15:59;;;;;;;3.83;1.83;;;;;;;-12.50;84.15;98145.47;5056197;28;20043;-78
2021/12/25 03:18:28;;;;;;;2.28;1.60;;;;;;;-12.58;84.00;98139.53;5072901;28;20106;-78
2021/12/25 03:20:58;;;;;;;3.53;1.50;;;;;;;-12.58;84.49;98136.88;5072487;28;20033;-76
2021/12/25 03:23:27;;;;;;;3.38;1.50;;;;;;;-12.61;84.66;98145.22;5072895;28;20040;-76
2021/12/25 03:25:54;;;;;;;4.20;1.90;;;;;;;-12.70;84.75;98141.09;5054448;28;20036;-76
2021/12/25 03:28:22;;;;;;;3.42;1.73;;;;;;;-12.76;84.50;98149.78;5054851;28;20127;-76
2021/12/25 03:30:49;;;;;;;3.55;1.88;;;;;;;-12.83;84.22;98149.75;5038323;28;20044;-77
2021/12/25 03:33:17;;;;;;;2.20;1.83;;;;;;;-12.86;84.62;98145.66;5054993;28;20037;-77
2021/12/25 03:35:43;;;;;;;2.53;1.65;;;;;;;-12.92;84.46;98137.69;5054345;28;20036;-77
2021/12/25 03:38:12;;;;;;;2.92;1.73;;;;;;;-13.02;84.02;98140.66;5071576;28;20456;-77
2021/12/25 03:40:38;;;;;;;3.25;2.00;;;;;;;-13.05;84.32;98142.88;5072154;28;20486;-77
2021/12/25 03:43:05;;;;;;;3.45;1.73;;;;;;;-13.12;83.88;98142.84;5054085;28;20244;-76
2021/12/25 03:45:32;;;;;;;2.50;1.42;;;;;;;-13.15;84.15;98146.69;5054075;28;20032;-76
2021/12/25 03:57:38;;;;;;;3.88;1.77;;;;;;;-13.36;84.24;98157.31;5040354;28;20039;-77
2021/12/25 03:59:34;;;;;;;1.83;1.20;;;;;;;-13.56;84.18;98154.47;5085322;28;20509;-78
2021/12/25 04:02:05;;;;;;;3.58;1.40;;;;;;;-13.59;84.24;98160.13;5054323;28;20040;-77
2021/12/25 04:07:18;;;;;;;1.63;1.30;;;;;;;-13.62;84.71;98164.97;5071349;28;20043;-78
2021/12/25 04:09:46;;;;;;;2.63;1.40;;;;;;;-13.66;84.27;98163.72;5071980;28;20494;-77
2021/12/25 04:12:14;;;;;;;3.95;1.73;;;;;;;-13.69;84.28;98170.19;5053716;28;20040;-77
2021/12/25 04:14:40;;;;;;;2.78;1.50;;;;;;;-13.73;84.02;98166.25;5047630;28;20040;-77
2021/12/25 04:17:06;;;;;;;2.78;1.67;;;;;;;-13.77;83.76;98167.66;5084976;28;20044;-77
2021/12/25 04:19:34;;;;;;;2.85;1.67;;;;;;;-13.82;84.31;98164.75;5070518;28;20059;-77
2021/12/25 04:22:10;;;;;;;3.95;2.00;;;;;;;-13.84;84.10;98178.13;5053497;28;20036;-76
2021/12/25 04:24:41;;;;;;;3.88;2.03;;;;;;;-13.84;84.11;98178.13;5055525;28;20094;-77
2021/12/25 04:27:10;;;;;;;3.33;1.83;;;;;;;-13.88;84.40;98183.94;5070016;28;20097;-76
2021/12/25 04:29:59;;;;;;;3.65;2.03;;;;;;;-13.95;83.89;98183.88;5071191;28;20119;-76
2021/12/25 05:06:03;;;;;;;4.35;1.92;;;;;;;-15.52;82.27;98241.91;5009347;28;20052;-76
2021/12/25 05:08:33;;;;;;;4.07;1.83;;;;;;;-15.56;82.89;98238.81;5053247;28;20106;-76
2021/12/25 05:10:58;;;;;;;3.42;1.70;;;;;;;-15.67;82.88;98246.31;5064308;28;20048;-76
2021/12/25 05:13:24;;;;;;;3.20;1.80;;;;;;;-15.78;82.48;98241.47;5083379;28;20037;-76
2021/12/25 05:15:50;;;;;;;2.55;1.48;;;;;;;-15.86;82.58;98243.13;5052731;28;20513;-76
2021/12/25 05:18:16;;;;;;;2.22;1.35;;;;;;;-15.93;82.63;98251.88;5053105;28;20135;-76
2021/12/25 05:20:41;;;;;;;3.45;1.90;;;;;;;-16.03;82.52;98251.25;5036184;28;20414;-76
2021/12/25 05:23:08;;;;;;;4.70;2.00;;;;;;;-16.13;81.90;98251.50;5069413;28;20548;-76
2021/12/25 05:25:34;;;;;;;2.80;1.70;;;;;;;-16.18;82.09;98246.72;5069385;28;20048;-76
2021/12/25 05:28:01;;;;;;;5.75;2.22;;;;;;;-16.21;82.42;98247.06;5053056;28;20036;-76
2021/12/25 05:30:28;;;;;;;4.00;2.05;;;;;;;-16.24;82.15;98249.22;5061246;28;20695;-76
2021/12/25 05:33:32;;;;;;;2.85;2.20;;;;;;;-16.34;81.88;98253.84;5008236;28;20065;-76
2021/12/25 05:36:12;;;;;;;3.65;2.10;;;;;;;-16.40;81.91;98254.53;4994154;28;20038;-77
2021/12/25 05:38:58;;;;;;;3.70;1.75;;;;;;;-16.51;82.03;98251.25;5048875;28;20059;-76
2021/12/25 05:41:28;;;;;;;5.03;2.70;;;;;;;-16.58;81.80;98263.44;5069434;28;20036;-76
2021/12/25 05:43:55;;;;;;;5.97;1.85;;;;;;;-16.64;81.90;98263.28;5043376;28;20037;-76
2021/12/25 05:46:40;;;;;;;5.55;2.00;;;;;;;-16.65;82.06;98266.91;5055264;28;20048;-76
2021/12/25 05:49:06;;;;;;;4.03;2.03;;;;;;;-16.71;81.89;98273.66;5086374;28;20040;-76
2021/12/25 05:51:51;;;;;;;3.05;1.98;;;;;;;-16.70;82.12;98279.72;5042267;28;20048;-76
2021/12/25 05:54:26;;;;;;;2.78;1.63;;;;;;;-16.72;82.21;98282.50;5056657;28;20048;-76
2021/12/25 05:57:14;;;;;;;4.13;1.90;;;;;;;-16.77;82.20;98290.88;5073218;28;20037;-76
2021/12/25 06:00:09;;;;;;;3.67;1.85;;;;;;;-16.77;82.20;98280.38;5044143;28;20230;-75
2021/12/25 06:02:41;;;;;;;4.05;1.90;;;;;;;-16.80;82.11;98285.16;5089406;28;20040;-76
2021/12/25 06:05:09;;;;;;;3.47;1.73;;;;;;;-16.88;81.91;98293.81;5073365;28;20478;-76
2021/12/25 06:07:36;;;;;;;3.17;1.60;;;;;;;-16.91;81.98;98295.97;5045891;28;20102;-76
2021/12/25 06:10:04;;;;;;;3.47;1.83;;;;;;;-16.91;82.23;98286.28;5056330;28;20423;-76
2021/12/25 06:12:31;;;;;;;3.38;1.88;;;;;;;-16.99;82.50;98291.56;5056976;28;20063;-76
2021/12/25 06:15:00;;;;;;;3.47;2.13;;;;;;;-17.08;82.15;98298.59;5039526;28;20506;-76
2021/12/25 06:17:45;;;;;;;3.90;2.80;;;;;;;-17.15;82.06;98302.84;5068958;28;20387;-76
2021/12/25 06:20:18;;;;;;;6.50;2.30;;;;;;;-17.14;81.95;98298.44;5055947;28;20033;-78
2021/12/25 06:22:49;;;;;;;5.60;2.10;;;;;;;-17.16;82.00;98303.84;5072901;28;20044;-77
2021/12/25 06:25:38;;;;;;;5.05;2.72;;;;;;;-17.24;81.80;98309.06;5053543;28;20052;-78
2021/12/25 06:28:27;;;;;;;7.05;2.58;;;;;;;-17.29;81.99;98313.16;5055885;28;20566;-77
2021/12/25 06:31:15;;;;;;;6.97;2.80;;;;;;;-17.29;82.09;98321.03;5067608;28;20511;-78
2021/12/25 06:33:52;;;;;;;5.15;2.30;;;;;;;-17.33;82.25;98324.94;5072251;28;20665;-76
2021/12/25 06:36:31;;;;;;;6.03;2.53;;;;;;;-17.33;82.43;98320.53;5063653;28;20048;-75
2021/12/25 06:39:16;;;;;;;5.25;2.83;;;;;;;-17.40;82.39;98330.00;5085907;28;20541;-76
2021/12/25 06:41:55;;;;;;;5.97;2.72;;;;;;;-17.39;82.36;98331.63;5055805;28;20041;-76
2021/12/25 06:44:24;;;;;;;4.80;2.90;;;;;;;-17.35;82.37;98332.13;5055553;28;20041;-76
2021/12/25 06:46:54;;;;;;;4.82;2.67;;;;;;;-17.40;82.63;98338.69;5055474;28;20036;-76
2021/12/25 06:49:22;;;;;;;5.57;2.70;;;;;;;-17.41;82.77;98334.44;5059552;28;20032;-75
2021/12/25 06:52:06;;;;;;;6.50;3.20;;;;;;;-17.45;82.52;98343.59;5073257;28;20043;-78
2021/12/25 06:54:40;;;;;;;5.78;3.20;;;;;;;-17.48;82.25;98346.53;5056707;28;20119;-78
2021/12/25 06:57:20;;;;;;;6.72;2.65;;;;;;;-17.58;82.54;98360.75;5055409;28;20045;-78
2021/12/25 06:59:45;;;;;;;6.28;2.97;;;;;;;-17.69;82.34;98361.91;5055003;28;20095;-77
2021/12/25 07:02:12;;;;;;;6.22;3.28;;;;;;;-17.75;82.42;98367.75;5057292;28;20044;-77
2021/12/25 07:04:56;;;;;;;7.47;3.08;;;;;;;-17.82;82.05;98366.75;5071244;28;20051;-78
2021/12/25 07:07:30;;;;;;;9.25;3.35;;;;;;;-17.80;82.33;98359.56;5073787;28;20045;-77
2021/12/25 07:10:15;;;;;;;6.70;3.38;;;;;;;-17.85;82.47;98364.47;5043885;28;20135;-77
2021/12/25 07:12:58;;;;;;;8.40;3.13;;;;;;;-17.92;82.32;98360.81;5073226;28;20098;-77
2021/12/25 07:15:35;;;;;;;4.72;3.00;;;;;;;-17.98;82.17;98366.69;5040455;28;20036;-77
2021/12/25 07:18:20;;;;;;;6.00;3.28;;;;;;;-17.98;82.24;98364.88;5055323;28;20047;-77
2021/12/25 07:21:05;;;;;;;5.72;3.22;;;;;;;-17.97;82.39;98357.84;5073013;28;20086;-76
2021/12/25 07:23:40;;;;;;;7.20;3.38;;;;;;;-17.99;82.24;98368.47;5055428;28;20051;-77
2021/12/25 07:26:10;;;;;;;7.35;3.72;;;;;;;-17.97;82.14;98373.56;5038297;28;20041;-77
2021/12/25 07:28:46;;;;;;;7.25;3.53;;;;;;;-18.04;82.47;98374.19;5070865;28;20044;-76
2021/12/25 07:31:12;;;;;;;9.23;3.83;;;;;;;-18.01;82.28;98379.09;5075924;28;20044;-76
2021/12/25 07:33:40;;;;;;;6.40;3.63;;;;;;;-18.07;82.27;98377.09;5071925;28;20445;-76
2021/12/25 07:36:08;;;;;;;7.47;3.67;;;;;;;-18.07;82.28;98371.84;5054680;28;20554;-76
2021/12/25 07:38:33;;;;;;;8.90;3.92;;;;;;;-18.02;82.04;98371.41;5072388;28;20052;-76
2021/12/25 07:40:59;;;;;;;9.55;4.13;;;;;;;-18.05;82.03;98371.69;5072570;28;20453;-76
2021/12/25 07:43:24;;;;;;;5.72;3.58;;;;;;;-17.96;81.61;98375.19;5070306;28;20040;-76
2021/12/25 07:46:00;;;;;;;10.52;4.07;;;;;;;-18.01;81.39;98373.06;5038677;28;20090;-76
2021/12/25 07:48:27;;;;;;;6.28;3.58;;;;;;;-18.01;81.81;98384.34;5054479;28;20549;-76
2021/12/25 07:50:53;;;;;;;6.40;3.90;;;;;;;-17.92;81.79;98385.19;5054371;28;20040;-77
2021/12/25 07:53:19;;;;;;;6.40;3.97;;;;;;;-17.54;81.32;98381.22;5054387;28;20043;-77
2021/12/25 07:55:49;;;;;;;5.75;2.92;;;;;;;-16.93;80.88;98385.28;5035509;28;20024;-77
2021/12/25 07:58:18;;;;;;;5.75;3.38;;;;;;;-16.55;80.32;98377.72;5077689;28;20048;-77
2021/12/25 08:00:44;;;;;;;5.13;3.03;;;;;;;-16.27;80.21;98386.06;5070564;28;20471;-77
2021/12/25 08:03:12;;;;;;;5.80;3.38;;;;;;;-15.76;80.14;98374.28;5071052;28;20040;-77
2021/12/25 08:05:37;;;;;;;6.30;3.40;;;;;;;-15.31;79.63;98384.06;5054091;28;20135;-77
2021/12/25 08:08:03;;;;;;;5.47;3.10;;;;;;;-14.96;79.23;98374.81;5060131;28;20052;-77
2021/12/25 08:10:30;;;;;;;6.35;3.42;;;;;;;-14.46;80.20;98384.00;5081457;28;20411;-77
2021/12/25 08:12:57;;;;;;;7.03;3.20;;;;;;;-14.20;79.19;98377.50;5037605;28;20040;-77
2021/12/25 08:15:28;;;;;;;6.30;3.63;;;;;;;-14.20;77.16;98375.69;5071520;28;20037;-77
2021/12/25 08:17:56;;;;;;;7.25;3.50;;;;;;;-13.98;78.18;98386.34;5053611;28;20045;-77
2021/12/25 08:20:34;;;;;;;9.30;3.60;;;;;;;-13.78;78.61;98390.06;5071608;28;20033;-77
2021/12/25 08:23:18;;;;;;;8.40;3.45;;;;;;;-13.42;79.79;98387.50;5070032;28;20037;-78
2021/12/25 08:26:03;;;;;;;7.18;3.20;;;;;;;-13.43;80.36;98391.97;5072461;28;20063;-78
2021/12/25 08:28:48;;;;;;;5.80;3.45;;;;;;;-13.92;79.25;98386.41;5084596;28;20490;-78
2021/12/25 08:31:32;;;;;;;6.35;3.58;;;;;;;-14.08;79.72;98397.13;5071187;28;20453;-77
2021/12/25 08:34:20;;;;;;;6.93;4.25;;;;;;;-14.87;77.95;98399.28;5056744;28;20098;-78
2021/12/25 08:37:00;;;;;;;7.80;5.07;;;;;;;-15.49;76.80;98401.09;5070066;28;20060;-78
2021/12/25 08:39:26;;;;;;;5.95;3.88;;;;;;;-15.92;76.34;98406.69;5071059;28;20572;-78
2021/12/25 08:42:00;;;;;;;8.32;4.10;;;;;;;-16.08;76.99;98408.53;5052869;28;20043;-77
2021/12/25 08:44:53;;;;;;;8.40;3.83;;;;;;;-16.43;76.45;98402.66;5070945;28;20040;-78
2021/12/25 08:47:19;;;;;;;5.47;3.42;;;;;;;-16.64;76.56;98405.78;5056579;28;20483;-78
2021/12/25 08:49:45;;;;;;;6.30;3.75;;;;;;;-16.72;77.16;98404.97;5071351;28;20044;-78
2021/12/25 08:52:14;;;;;;;7.75;3.75;;;;;;;-16.83;77.04;98409.56;5071540;28;20048;-78
2021/12/25 08:54:41;;;;;;;6.93;3.55;;;;;;;-16.95;77.50;98418.72;5053093;28;20036;-78
2021/12/25 08:57:08;;;;;;;7.82;3.95;;;;;;;-17.07;77.59;98420.00;5070018;28;20036;-78
2021/12/25 08:59:34;;;;;;;6.88;3.80;;;;;;;-17.28;76.99;98422.25;5052862;28;20498;-78
2021/12/25 09:02:05;;;;;;;9.60;4.47;;;;;;;-17.35;77.09;98427.31;5070843;28;20035;-78
2021/12/25 09:04:31;;;;;;;9.10;5.35;;;;;;;-17.48;76.94;98437.41;5086496;28;20048;-78
2021/12/25 09:06:58;;;;;;;8.88;4.72;;;;;;;-17.50;77.21;98442.00;5052278;28;20513;-76
2021/12/25 09:09:23;;;;;;;10.45;4.68;;;;;;;-17.45;78.02;98434.47;5072883;28;20033;-76
2021/12/25 09:11:49;;;;;;;7.43;4.40;;;;;;;-17.49;78.11;98439.22;5068215;28;20029;-78
2021/12/25 09:14:15;;;;;;;14.15;5.50;;;;;;;-17.55;78.01;98431.97;5052857;28;20040;-76
2021/12/25 09:16:41;;;;;;;8.57;4.20;;;;;;;-17.64;77.91;98438.16;5070533;28;20060;-77
2021/12/25 09:19:06;;;;;;;8.65;4.70;;;;;;;-17.66;77.98;98440.13;5070952;28;20037;-78
2021/12/25 09:21:32;;;;;;;8.25;4.20;;;;;;;-17.74;77.92;98443.53;5036380;28;20464;-78
2021/12/25 09:23:58;;;;;;;7.63;4.60;;;;;;;-17.77;78.12;98437.81;5068883;28;20036;-78
2021/12/25 09:26:24;;;;;;;8.13;4.32;;;;;;;-17.86;77.94;98428.28;5052720;28;20047;-78
2021/12/25 09:28:50;;;;;;;7.85;4.28;;;;;;;-17.92;77.58;98439.34;5070788;28;20048;-78
2021/12/25 09:31:15;;;;;;;7.15;3.72;;;;;;;-17.94;77.49;98431.66;5070646;28;20118;-78
2021/12/25 09:33:41;;;;;;;5.90;3.60;;;;;;;-17.91;77.81;98441.00;5086723;28;20041;-79
2021/12/25 09:36:07;;;;;;;7.50;3.58;;;;;;;-17.91;78.08;98436.56;5071014;28;20507;-78
2021/12/25 09:38:34;;;;;;;9.85;4.03;;;;;;;-17.83;77.66;98434.03;5071013;28;20570;-78
2021/12/25 09:41:00;;;;;;;9.05;4.75;;;;;;;-17.79;78.20;98437.97;5069038;28;20059;-78
2021/12/25 09:43:26;;;;;;;7.53;3.90;;;;;;;-17.72;78.22;98440.75;5070505;28;20033;-78
2021/12/25 09:45:53;;;;;;;6.15;3.25;;;;;;;-17.68;78.07;98436.88;5051355;28;20041;-78
2021/12/25 09:48:19;;;;;;;6.43;3.80;;;;;;;-17.66;78.17;98439.31;5080143;28;20498;-78
2021/12/25 09:50:45;;;;;;;6.10;4.05;;;;;;;-17.57;78.14;98441.78;5070297;28;20089;-78
2021/12/25 09:53:12;;;;;;;5.32;3.58;;;;;;;-17.49;78.62;98433.97;5036084;28;20040;-78
2021/12/25 09:55:38;;;;;;;8.40;3.88;;;;;;;-17.41;78.79;98433.19;5053950;28;20115;-78
2021/12/25 09:58:05;;;;;;;8.57;4.13;;;;;;;-17.29;78.74;98436.34;5070827;28;20048;-77
2021/12/25 10:00:33;;;;;;;7.32;4.55;;;;;;;-17.22;78.68;98434.72;5069529;28;20036;-77
2021/12/25 10:02:59;;;;;;;9.63;5.60;;;;;;;-17.18;78.94;98438.66;5070226;28;20086;-78
2021/12/25 10:05:27;;;;;;;9.65;4.32;;;;;;;-17.07;79.33;98440.97;5061130;28;20036;-78
2021/12/25 10:08:11;;;;;;;8.70;4.53;;;;;;;-17.00;79.39;98438.56;5070500;28;20039;-78
2021/12/25 10:11:11;;;;;;;7.63;4.28;;;;;;;-16.97;79.56;98439.06;5070220;28;20151;-79
2021/12/25 10:13:40;;;;;;;9.05;4.82;;;;;;;-16.82;79.65;98434.00;5069108;28;20131;-79
2021/12/25 10:16:19;;;;;;;;;;;;;;;-16.71;79.99;98430.22;5069323;28;20049;-79
2021/12/25 10:18:45;;;;;;;9.75;5.53;;;;;;;-16.68;79.64;98427.28;5086619;28;19927;-79
2021/12/25 10:21:21;;;;;;;10.13;5.45;;;;;;;-16.64;80.01;98432.03;5070618;28;20041;-78
2021/12/25 10:24:13;;;;;;;10.95;5.57;;;;;;;-16.52;80.26;98435.13;5055493;28;20131;-79
2021/12/25 10:26:42;;;;;;;11.40;5.78;;;;;;;-16.36;80.24;98443.00;5070025;28;20105;-78
2021/12/25 10:29:28;;;;;;;12.35;6.47;;;;;;;-16.33;80.13;98439.22;5038724;28;20044;-78
2021/12/25 10:31:58;;;;;;;13.18;5.60;;;;;;;-16.30;80.01;98439.75;5063762;28;20036;-76
2021/12/25 10:34:29;;;;;;;12.55;5.78;;;;;;;-16.21;80.07;98433.47;5048235;28;20032;-77
2021/12/25 10:37:06;;;;;;;9.70;5.60;;;;;;;-16.11;80.45;98437.75;5050563;28;20089;-77
2021/12/25 10:39:31;;;;;;;9.00;4.95;;;;;;;-16.06;80.58;98440.69;5071125;28;20036;-76
2021/12/25 10:41:58;;;;;;;9.05;5.40;;;;;;;-16.04;80.80;98449.22;5055555;28;20418;-77
2021/12/25 10:44:27;;;;;;;8.80;4.43;;;;;;;-15.96;81.38;98443.97;5073489;28;20115;-77
2021/12/25 10:46:55;;;;;;;9.25;4.72;;;;;;;-15.88;81.24;98431.63;5073700;28;20072;-79
2021/12/25 10:49:23;;;;;;;9.00;5.20;;;;;;;-15.78;81.93;98439.34;5055473;28;20040;-77
2021/12/25 10:51:49;;;;;;;8.00;4.85;;;;;;;-15.77;81.86;98440.16;5038566;28;20505;-78
2021/12/25 10:54:16;;;;;;;8.25;4.55;;;;;;;-15.76;82.04;98441.78;5075831;28;20044;-78
2021/12/25 10:56:44;;;;;;;8.77;4.80;;;;;;;-15.72;82.13;98433.41;5059601;28;20291;-78
2021/12/25 10:59:13;;;;;;;9.75;4.97;;;;;;;-15.64;81.94;98441.25;5072728;28;20047;-79
2021/12/25 11:01:47;;;;;;;10.73;5.43;;;;;;;-15.65;82.08;98438.78;5072497;28;20040;-82
2021/12/25 11:04:25;;;;;;;10.43;5.45;;;;;;;-15.62;82.56;98444.56;5070218;28;20071;-81
2021/12/25 11:06:51;;;;;;;11.90;5.03;;;;;;;-15.55;82.56;98444.66;5077469;28;20044;-81
2021/12/25 11:09:16;;;;;;;10.98;5.57;;;;;;;-15.52;82.90;98454.81;5072096;28;20037;-81
2021/12/25 11:11:42;;;;;;;11.50;4.30;;;;;;;-15.51;82.70;98456.47;5075873;28;20032;-82
2021/12/25 11:14:07;;;;;;;10.02;5.15;;;;;;;-15.49;82.45;98456.28;5075059;28;20515;-83
2021/12/25 11:16:37;;;;;;;8.93;4.60;;;;;;;-15.47;83.00;98457.75;5068070;28;20059;-82
2021/12/25 11:19:15;;;;;;;8.10;4.55;;;;;;;-15.44;82.66;98456.59;5087832;28;20097;-82
2021/12/25 11:21:43;;;;;;;9.05;5.03;;;;;;;-15.40;83.27;98461.38;5053960;28;20037;-82
2021/12/25 11:24:14;;;;;;;7.85;5.72;;;;;;;-15.43;83.26;98463.53;5072807;28;20040;-83
2021/12/25 11:26:42;;;;;;;8.60;5.13;;;;;;;-15.46;82.77;98463.84;5072595;28;20043;-83
2021/12/25 11:29:09;;;;;;;7.03;5.03;;;;;;;-15.44;83.35;98454.81;5073194;28;20040;-84
2021/12/25 11:31:35;;;;;;;10.05;5.95;;;;;;;-15.44;83.13;98467.97;5054922;28;20032;-83
2021/12/25 11:34:03;;;;;;;7.78;5.28;;;;;;;-15.37;83.38;98473.34;5072604;28;20036;-82
2021/12/25 11:36:29;;;;;;;9.75;5.25;;;;;;;-15.34;83.94;98480.88;5054739;28;20504;-82
2021/12/25 11:38:55;;;;;;;9.82;5.38;;;;;;;-15.32;83.65;98486.78;5071963;28;20094;-82
2021/12/25 11:41:29;;;;;;;7.82;5.13;;;;;;;-15.32;83.49;98484.16;5072794;28;20044;-82
2021/12/25 11:43:55;;;;;;;10.60;4.93;;;;;;;-15.34;83.41;98480.88;5054856;28;20037;-84
2021/12/25 11:46:23;;;;;;;7.35;5.00;;;;;;;-15.37;83.30;98470.72;5052913;28;20032;-84
2021/12/25 11:49:24;;;;;;;9.65;6.47;;;;;;;-15.37;82.94;98468.09;5070323;28;20063;-84
2021/12/25 11:51:51;;;;;;;11.40;6.43;;;;;;;-15.37;83.02;98470.72;5029756;28;20127;-84
2021/12/25 12:00:39;;;;;;;11.40;5.72;;;;;;;-15.28;83.98;98481.03;5072542;28;20037;-84
2021/12/25 12:03:05;;;;;;;9.23;5.25;;;;;;;-15.27;83.63;98473.94;5054542;28;20135;-84
2021/12/25 12:05:33;;;;;;;8.63;5.28;;;;;;;-15.25;83.75;98479.88;5053798;28;20109;-84
2021/12/25 12:08:08;;;;;;;8.80;5.18;;;;;;;-15.23;83.94;98477.91;5071531;28;20028;-84
2021/12/25 12:10:56;;;;;;;9.25;5.35;;;;;;;-15.23;84.16;98472.63;5054128;28;20037;-84
2021/12/25 12:13:42;;;;;;;7.15;4.78;;;;;;;-15.27;84.42;98466.06;5055550;28;20048;-84
2021/12/25 12:16:39;;;;;;;6.90;4.53;;;;;;;-15.34;83.50;98470.38;5033830;28;20047;-83
2021/12/25 12:19:31;;;;;;;8.00;4.68;;;;;;;-15.42;84.13;98455.47;5071859;28;20154;-83
2021/12/25 12:25:16;;;;;;;8.45;4.88;;;;;;;-15.41;84.27;98446.59;5070548;28;20037;-79
2021/12/25 12:27:48;;;;;;;7.72;4.20;;;;;;;-15.38;84.10;98440.16;5071496;28;20453;-79
2021/12/25 12:30:34;;;;;;;8.60;4.97;;;;;;;-15.37;84.17;98450.50;5070931;28;20526;-79
2021/12/25 12:33:01;;;;;;;7.95;4.65;;;;;;;-15.41;84.39;98443.13;5071237;28;20062;-79
2021/12/25 12:35:36;;;;;;;9.68;4.70;;;;;;;-15.43;84.18;98448.56;5086932;28;20418;-79
2021/12/25 12:38:37;;;;;;;6.63;4.05;;;;;;;-15.45;84.43;98444.44;5053199;28;20510;-80
2021/12/25 12:41:42;;;;;;;6.05;4.20;;;;;;;-15.45;84.37;98447.88;5086741;28;20040;-80
2021/12/25 12:44:08;;;;;;;7.45;4.13;;;;;;;-15.43;84.15;98448.56;5010398;28;20037;-80
2021/12/25 12:46:49;;;;;;;8.15;4.20;;;;;;;-15.37;84.39;98441.78;5060207;28;20048;-81
2021/12/25 12:49:18;;;;;;;6.70;3.90;;;;;;;-15.32;84.52;98444.72;5091615;28;20045;-78
2021/12/25 12:51:49;;;;;;;6.45;3.97;;;;;;;-15.27;84.10;98443.25;5069230;28;20591;-80
2021/12/25 12:54:39;;;;;;;5.78;3.70;;;;;;;-15.19;84.34;98450.25;5070580;28;20032;-80
2021/12/25 12:57:05;;;;;;;6.43;3.80;;;;;;;-15.13;84.52;98446.94;5070736;28;20043;-80
2021/12/25 12:59:52;;;;;;;5.43;3.40;;;;;;;-15.07;84.80;98440.19;5066775;28;20033;-79
2021/12/25 13:02:20;;;;;;;6.38;3.78;;;;;;;-15.04;84.30;98440.66;5067983;28;20037;-79
2021/12/25 13:04:50;;;;;;;7.15;3.88;;;;;;;-14.99;85.06;98443.59;5070671;28;20090;-79
2021/12/25 13:07:19;;;;;;;6.22;3.70;;;;;;;-14.97;84.79;98428.44;5070763;28;20402;-79
2021/12/25 13:09:53;;;;;;;7.03;4.47;;;;;;;-14.91;84.48;98421.69;5067563;28;20044;-80